sensor_id;sensor_type;location;lat;lon;timestamp;P1;durP1;ratioP1;P2;durP2;ratioP2
13085;SDS011;6609;49.882;8.664;2023-02-08T00:02:02;12.32;;;5.82;;
13085;SDS011;6609;49.882;8.664;2023-02-08T00:04:29;16.85;;;7.45;;
13085;SDS011;6609;49.882;8.664;2023-02-08T00:06:58;15.25;;;6.40;;
13085;SDS011;6609;49.882;8.664;2023-02-08T00:09:25;12.45;;;5.88;;
13085;SDS011;6609;49.882;8.664;2023-02-08T00:11:52;16.77;;;6.70;;
13085;SDS011;6609;49.882;8.664;2023-02-08T00:14:18;14.60;;;6.05;;
13085;SDS011;6609;49.882;8.664;2023-02-08T00:16:45;16.75;;;7.75;;
13085;SDS011;6609;49.882;8.664;2023-02-08T00:19:12;13.30;;;6.97;;
13085;SDS011;6609;49.882;8.664;2023-02-08T00:21:39;18.23;;;7.93;;
13085;SDS011;6609;49.882;8.664;2023-02-08T00:24:07;14.10;;;6.68;;
13085;SDS011;6609;49.882;8.664;2023-02-08T00:26:34;14.23;;;6.32;;
13085;SDS011;6609;49.882;8.664;2023-02-08T00:29:01;11.65;;;6.25;;
13085;SDS011;6609;49.882;8.664;2023-02-08T00:31:28;14.45;;;6.78;;
13085;SDS011;6609;49.882;8.664;2023-02-08T00:33:55;16.15;;;6.97;;
13085;SDS011;6609;49.882;8.664;2023-02-08T00:36:22;13.70;;;6.60;;
13085;SDS011;6609;49.882;8.664;2023-02-08T00:38:49;15.57;;;7.18;;
13085;SDS011;6609;49.882;8.664;2023-02-08T00:41:17;12.00;;;6.55;;
13085;SDS011;6609;49.882;8.664;2023-02-08T00:43:44;20.65;;;7.97;;
13085;SDS011;6609;49.882;8.664;2023-02-08T00:46:11;18.35;;;7.10;;
13085;SDS011;6609;49.882;8.664;2023-02-08T00:48:38;14.27;;;6.95;;
13085;SDS011;6609;49.882;8.664;2023-02-08T00:51:05;15.63;;;6.93;;
13085;SDS011;6609;49.882;8.664;2023-02-08T00:53:37;20.42;;;8.20;;
13085;SDS011;6609;49.882;8.664;2023-02-08T00:56:05;18.05;;;7.20;;
13085;SDS011;6609;49.882;8.664;2023-02-08T00:58:33;17.92;;;7.18;;
13085;SDS011;6609;49.882;8.664;2023-02-08T01:01:01;16.58;;;7.25;;
13085;SDS011;6609;49.882;8.664;2023-02-08T01:03:31;21.48;;;7.47;;
13085;SDS011;6609;49.882;8.664;2023-02-08T01:06:00;20.02;;;8.43;;
13085;SDS011;6609;49.882;8.664;2023-02-08T01:08:28;18.13;;;7.93;;
13085;SDS011;6609;49.882;8.664;2023-02-08T01:11:00;15.50;;;6.97;;
13085;SDS011;6609;49.882;8.664;2023-02-08T01:13:28;14.68;;;6.63;;
13085;SDS011;6609;49.882;8.664;2023-02-08T01:16:05;18.77;;;8.13;;
13085;SDS011;6609;49.882;8.664;2023-02-08T01:18:32;15.13;;;7.20;;
13085;SDS011;6609;49.882;8.664;2023-02-08T01:21:02;19.42;;;7.30;;
13085;SDS011;6609;49.882;8.664;2023-02-08T01:23:30;12.70;;;7.03;;
13085;SDS011;6609;49.882;8.664;2023-02-08T01:25:57;15.50;;;7.60;;
13085;SDS011;6609;49.882;8.664;2023-02-08T01:28:24;14.25;;;7.60;;
13085;SDS011;6609;49.882;8.664;2023-02-08T01:30:51;20.42;;;8.32;;
13085;SDS011;6609;49.882;8.664;2023-02-08T01:33:19;20.08;;;8.50;;
13085;SDS011;6609;49.882;8.664;2023-02-08T01:35:48;16.20;;;7.85;;
13085;SDS011;6609;49.882;8.664;2023-02-08T01:38:16;17.92;;;8.23;;
13085;SDS011;6609;49.882;8.664;2023-02-08T01:40:43;19.75;;;8.50;;
13085;SDS011;6609;49.882;8.664;2023-02-08T01:43:13;21.40;;;9.13;;
13085;SDS011;6609;49.882;8.664;2023-02-08T01:45:45;17.35;;;7.72;;
13085;SDS011;6609;49.882;8.664;2023-02-08T01:48:12;15.45;;;7.18;;
13085;SDS011;6609;49.882;8.664;2023-02-08T01:50:45;19.10;;;9.13;;
13085;SDS011;6609;49.882;8.664;2023-02-08T01:53:16;16.58;;;7.55;;
13085;SDS011;6609;49.882;8.664;2023-02-08T01:55:44;23.73;;;9.23;;
13085;SDS011;6609;49.882;8.664;2023-02-08T01:58:14;21.95;;;8.63;;
13085;SDS011;6609;49.882;8.664;2023-02-08T02:00:44;24.27;;;9.00;;
13085;SDS011;6609;49.882;8.664;2023-02-08T02:03:11;16.90;;;7.78;;
13085;SDS011;6609;49.882;8.664;2023-02-08T02:05:40;24.02;;;10.60;;
13085;SDS011;6609;49.882;8.664;2023-02-08T02:08:10;20.88;;;8.70;;
13085;SDS011;6609;49.882;8.664;2023-02-08T02:10:38;15.45;;;7.75;;
13085;SDS011;6609;49.882;8.664;2023-02-08T02:13:07;15.65;;;7.90;;
13085;SDS011;6609;49.882;8.664;2023-02-08T02:15:36;15.85;;;7.32;;
13085;SDS011;6609;49.882;8.664;2023-02-08T02:18:03;19.02;;;7.90;;
13085;SDS011;6609;49.882;8.664;2023-02-08T02:20:39;24.17;;;8.90;;
13085;SDS011;6609;49.882;8.664;2023-02-08T02:23:33;23.15;;;8.68;;
13085;SDS011;6609;49.882;8.664;2023-02-08T02:26:29;18.83;;;8.50;;
13085;SDS011;6609;49.882;8.664;2023-02-08T02:29:30;19.42;;;8.15;;
13085;SDS011;6609;49.882;8.664;2023-02-08T02:32:06;16.00;;;7.85;;
13085;SDS011;6609;49.882;8.664;2023-02-08T02:34:45;18.95;;;8.55;;
13085;SDS011;6609;49.882;8.664;2023-02-08T02:37:20;26.45;;;9.23;;
13085;SDS011;6609;49.882;8.664;2023-02-08T02:39:58;24.60;;;10.10;;
13085;SDS011;6609;49.882;8.664;2023-02-08T02:42:34;19.27;;;9.32;;
13085;SDS011;6609;49.882;8.664;2023-02-08T02:45:23;19.95;;;9.27;;
13085;SDS011;6609;49.882;8.664;2023-02-08T02:47:57;23.13;;;9.27;;
13085;SDS011;6609;49.882;8.664;2023-02-08T02:50:31;18.13;;;9.05;;
13085;SDS011;6609;49.882;8.664;2023-02-08T02:53:01;18.08;;;8.90;;
13085;SDS011;6609;49.882;8.664;2023-02-08T02:55:33;17.33;;;9.10;;
13085;SDS011;6609;49.882;8.664;2023-02-08T02:58:06;22.08;;;8.88;;
13085;SDS011;6609;49.882;8.664;2023-02-08T03:00:37;25.73;;;10.30;;
13085;SDS011;6609;49.882;8.664;2023-02-08T03:03:05;20.85;;;8.80;;
13085;SDS011;6609;49.882;8.664;2023-02-08T03:05:32;18.70;;;9.38;;
13085;SDS011;6609;49.882;8.664;2023-02-08T03:08:14;15.43;;;8.00;;
13085;SDS011;6609;49.882;8.664;2023-02-08T03:11:01;20.90;;;9.25;;
13085;SDS011;6609;49.882;8.664;2023-02-08T03:13:44;20.25;;;8.98;;
13085;SDS011;6609;49.882;8.664;2023-02-08T03:16:19;20.10;;;8.98;;
13085;SDS011;6609;49.882;8.664;2023-02-08T03:19:00;23.67;;;10.20;;
13085;SDS011;6609;49.882;8.664;2023-02-08T03:21:35;21.63;;;10.02;;
13085;SDS011;6609;49.882;8.664;2023-02-08T03:24:06;26.17;;;9.90;;
13085;SDS011;6609;49.882;8.664;2023-02-08T03:26:35;21.38;;;10.05;;
13085;SDS011;6609;49.882;8.664;2023-02-08T03:29:06;18.55;;;8.93;;
13085;SDS011;6609;49.882;8.664;2023-02-08T03:31:38;19.95;;;9.65;;
13085;SDS011;6609;49.882;8.664;2023-02-08T03:34:13;25.83;;;11.10;;
13085;SDS011;6609;49.882;8.664;2023-02-08T03:36:45;21.38;;;9.85;;
13085;SDS011;6609;49.882;8.664;2023-02-08T03:39:16;17.48;;;9.15;;
13085;SDS011;6609;49.882;8.664;2023-02-08T03:41:46;25.33;;;9.95;;
13085;SDS011;6609;49.882;8.664;2023-02-08T03:44:18;17.73;;;9.05;;
13085;SDS011;6609;49.882;8.664;2023-02-08T03:46:49;18.50;;;8.57;;
13085;SDS011;6609;49.882;8.664;2023-02-08T03:49:22;21.20;;;10.15;;
13085;SDS011;6609;49.882;8.664;2023-02-08T03:51:53;17.98;;;8.57;;
13085;SDS011;6609;49.882;8.664;2023-02-08T03:54:22;19.38;;;8.85;;
13085;SDS011;6609;49.882;8.664;2023-02-08T03:56:53;18.90;;;8.57;;
13085;SDS011;6609;49.882;8.664;2023-02-08T03:59:22;16.33;;;8.88;;
13085;SDS011;6609;49.882;8.664;2023-02-08T04:01:52;21.02;;;9.35;;
13085;SDS011;6609;49.882;8.664;2023-02-08T04:04:24;18.52;;;8.05;;
13085;SDS011;6609;49.882;8.664;2023-02-08T04:06:52;18.80;;;8.48;;
13085;SDS011;6609;49.882;8.664;2023-02-08T04:09:19;17.33;;;8.45;;
13085;SDS011;6609;49.882;8.664;2023-02-08T04:11:46;18.80;;;8.68;;
13085;SDS011;6609;49.882;8.664;2023-02-08T04:14:13;24.20;;;10.18;;
13085;SDS011;6609;49.882;8.664;2023-02-08T04:16:40;37.30;;;17.50;;
13085;SDS011;6609;49.882;8.664;2023-02-08T04:19:07;23.67;;;11.82;;
13085;SDS011;6609;49.882;8.664;2023-02-08T04:21:35;24.17;;;10.27;;
13085;SDS011;6609;49.882;8.664;2023-02-08T04:24:03;23.90;;;9.52;;
13085;SDS011;6609;49.882;8.664;2023-02-08T04:26:29;20.00;;;9.05;;
13085;SDS011;6609;49.882;8.664;2023-02-08T04:28:56;18.00;;;8.50;;
13085;SDS011;6609;49.882;8.664;2023-02-08T04:31:23;18.08;;;8.35;;
13085;SDS011;6609;49.882;8.664;2023-02-08T04:33:50;17.67;;;8.32;;
13085;SDS011;6609;49.882;8.664;2023-02-08T04:36:17;19.48;;;8.93;;
13085;SDS011;6609;49.882;8.664;2023-02-08T04:38:45;18.35;;;8.38;;
13085;SDS011;6609;49.882;8.664;2023-02-08T04:41:12;14.75;;;7.40;;
13085;SDS011;6609;49.882;8.664;2023-02-08T04:43:39;18.80;;;8.77;;
13085;SDS011;6609;49.882;8.664;2023-02-08T04:46:06;21.67;;;9.05;;
13085;SDS011;6609;49.882;8.664;2023-02-08T04:48:33;26.15;;;12.00;;
13085;SDS011;6609;49.882;8.664;2023-02-08T04:51:00;14.40;;;8.38;;
13085;SDS011;6609;49.882;8.664;2023-02-08T04:53:27;17.55;;;7.90;;
13085;SDS011;6609;49.882;8.664;2023-02-08T04:55:55;22.13;;;8.30;;
13085;SDS011;6609;49.882;8.664;2023-02-08T04:58:22;15.88;;;7.63;;
13085;SDS011;6609;49.882;8.664;2023-02-08T05:00:49;16.90;;;7.93;;
13085;SDS011;6609;49.882;8.664;2023-02-08T05:03:16;19.05;;;8.75;;
13085;SDS011;6609;49.882;8.664;2023-02-08T05:05:43;20.08;;;7.95;;
13085;SDS011;6609;49.882;8.664;2023-02-08T05:08:10;20.30;;;8.70;;
13085;SDS011;6609;49.882;8.664;2023-02-08T05:10:38;16.80;;;7.60;;
13085;SDS011;6609;49.882;8.664;2023-02-08T05:13:10;15.18;;;7.78;;
13085;SDS011;6609;49.882;8.664;2023-02-08T05:15:37;16.42;;;7.78;;
13085;SDS011;6609;49.882;8.664;2023-02-08T05:18:04;22.45;;;9.00;;
13085;SDS011;6609;49.882;8.664;2023-02-08T05:20:31;15.55;;;7.90;;
13085;SDS011;6609;49.882;8.664;2023-02-08T05:22:58;19.42;;;7.75;;
13085;SDS011;6609;49.882;8.664;2023-02-08T05:25:25;15.52;;;7.07;;
13085;SDS011;6609;49.882;8.664;2023-02-08T05:27:52;18.55;;;7.25;;
13085;SDS011;6609;49.882;8.664;2023-02-08T05:30:20;21.80;;;8.77;;
13085;SDS011;6609;49.882;8.664;2023-02-08T05:32:47;19.73;;;7.90;;
13085;SDS011;6609;49.882;8.664;2023-02-08T05:35:14;15.20;;;7.55;;
13085;SDS011;6609;49.882;8.664;2023-02-08T05:37:42;18.23;;;8.48;;
13085;SDS011;6609;49.882;8.664;2023-02-08T05:40:09;22.75;;;8.52;;
13085;SDS011;6609;49.882;8.664;2023-02-08T05:42:37;17.15;;;7.60;;
13085;SDS011;6609;49.882;8.664;2023-02-08T05:45:06;17.55;;;7.10;;
13085;SDS011;6609;49.882;8.664;2023-02-08T05:47:34;16.75;;;7.03;;
13085;SDS011;6609;49.882;8.664;2023-02-08T05:50:01;18.08;;;7.18;;
13085;SDS011;6609;49.882;8.664;2023-02-08T05:52:29;22.60;;;8.73;;
13085;SDS011;6609;49.882;8.664;2023-02-08T05:54:55;13.75;;;7.15;;
13085;SDS011;6609;49.882;8.664;2023-02-08T05:57:22;15.82;;;7.28;;
13085;SDS011;6609;49.882;8.664;2023-02-08T05:59:49;20.10;;;8.32;;
13085;SDS011;6609;49.882;8.664;2023-02-08T06:02:15;21.88;;;8.93;;
13085;SDS011;6609;49.882;8.664;2023-02-08T06:04:43;16.65;;;7.63;;
13085;SDS011;6609;49.882;8.664;2023-02-08T06:07:10;14.98;;;6.97;;
13085;SDS011;6609;49.882;8.664;2023-02-08T06:09:37;16.40;;;7.45;;
13085;SDS011;6609;49.882;8.664;2023-02-08T06:12:04;17.65;;;8.32;;
13085;SDS011;6609;49.882;8.664;2023-02-08T06:14:31;16.70;;;7.68;;
13085;SDS011;6609;49.882;8.664;2023-02-08T06:16:58;14.18;;;7.63;;
13085;SDS011;6609;49.882;8.664;2023-02-08T06:19:25;15.07;;;7.90;;
13085;SDS011;6609;49.882;8.664;2023-02-08T06:21:53;13.15;;;6.60;;
13085;SDS011;6609;49.882;8.664;2023-02-08T06:24:20;21.50;;;8.63;;
13085;SDS011;6609;49.882;8.664;2023-02-08T06:26:47;16.50;;;7.40;;
13085;SDS011;6609;49.882;8.664;2023-02-08T06:29:13;15.73;;;7.32;;
13085;SDS011;6609;49.882;8.664;2023-02-08T06:31:40;21.70;;;8.43;;
13085;SDS011;6609;49.882;8.664;2023-02-08T06:34:07;21.27;;;8.85;;
13085;SDS011;6609;49.882;8.664;2023-02-08T06:36:34;16.30;;;8.20;;
13085;SDS011;6609;49.882;8.664;2023-02-08T06:39:03;16.60;;;7.68;;
13085;SDS011;6609;49.882;8.664;2023-02-08T06:41:30;19.45;;;7.95;;
13085;SDS011;6609;49.882;8.664;2023-02-08T06:43:57;17.20;;;8.00;;
13085;SDS011;6609;49.882;8.664;2023-02-08T06:46:25;20.38;;;8.27;;
13085;SDS011;6609;49.882;8.664;2023-02-08T06:48:52;15.27;;;7.55;;
13085;SDS011;6609;49.882;8.664;2023-02-08T06:51:19;17.20;;;7.68;;
13085;SDS011;6609;49.882;8.664;2023-02-08T06:53:46;15.93;;;7.18;;
13085;SDS011;6609;49.882;8.664;2023-02-08T06:56:14;23.48;;;9.18;;
13085;SDS011;6609;49.882;8.664;2023-02-08T06:58:41;16.98;;;8.02;;
13085;SDS011;6609;49.882;8.664;2023-02-08T07:01:10;17.20;;;8.18;;
13085;SDS011;6609;49.882;8.664;2023-02-08T07:03:37;13.73;;;6.95;;
13085;SDS011;6609;49.882;8.664;2023-02-08T07:06:03;19.63;;;8.40;;
13085;SDS011;6609;49.882;8.664;2023-02-08T07:08:30;22.92;;;9.75;;
13085;SDS011;6609;49.882;8.664;2023-02-08T07:10:57;16.52;;;8.02;;
13085;SDS011;6609;49.882;8.664;2023-02-08T07:13:25;15.68;;;7.75;;
13085;SDS011;6609;49.882;8.664;2023-02-08T07:15:52;15.38;;;7.35;;
13085;SDS011;6609;49.882;8.664;2023-02-08T07:18:19;18.70;;;9.02;;
13085;SDS011;6609;49.882;8.664;2023-02-08T07:20:47;15.48;;;7.32;;
13085;SDS011;6609;49.882;8.664;2023-02-08T07:23:13;17.63;;;7.65;;
13085;SDS011;6609;49.882;8.664;2023-02-08T07:25:41;16.45;;;8.15;;
13085;SDS011;6609;49.882;8.664;2023-02-08T07:28:07;21.60;;;8.85;;
13085;SDS011;6609;49.882;8.664;2023-02-08T07:30:36;14.57;;;7.25;;
13085;SDS011;6609;49.882;8.664;2023-02-08T07:33:03;17.55;;;8.45;;
13085;SDS011;6609;49.882;8.664;2023-02-08T07:35:30;18.00;;;9.10;;
13085;SDS011;6609;49.882;8.664;2023-02-08T07:37:57;18.85;;;8.73;;
13085;SDS011;6609;49.882;8.664;2023-02-08T07:40:23;24.70;;;9.95;;
13085;SDS011;6609;49.882;8.664;2023-02-08T07:42:51;15.38;;;8.18;;
13085;SDS011;6609;49.882;8.664;2023-02-08T07:45:18;14.60;;;7.82;;
13085;SDS011;6609;49.882;8.664;2023-02-08T07:47:45;17.67;;;8.25;;
13085;SDS011;6609;49.882;8.664;2023-02-08T07:50:12;28.27;;;10.00;;
13085;SDS011;6609;49.882;8.664;2023-02-08T07:52:40;17.20;;;7.65;;
13085;SDS011;6609;49.882;8.664;2023-02-08T07:55:10;18.88;;;7.65;;
13085;SDS011;6609;49.882;8.664;2023-02-08T07:57:40;16.70;;;8.00;;
13085;SDS011;6609;49.882;8.664;2023-02-08T08:00:08;19.73;;;8.93;;
13085;SDS011;6609;49.882;8.664;2023-02-08T08:02:35;22.70;;;9.38;;
13085;SDS011;6609;49.882;8.664;2023-02-08T08:05:04;19.38;;;9.57;;
13085;SDS011;6609;49.882;8.664;2023-02-08T08:07:31;16.45;;;7.50;;
13085;SDS011;6609;49.882;8.664;2023-02-08T08:09:58;17.38;;;7.82;;
13085;SDS011;6609;49.882;8.664;2023-02-08T08:12:24;25.98;;;10.38;;
13085;SDS011;6609;49.882;8.664;2023-02-08T08:14:51;20.77;;;8.32;;
13085;SDS011;6609;49.882;8.664;2023-02-08T08:17:19;16.63;;;8.20;;
13085;SDS011;6609;49.882;8.664;2023-02-08T08:19:46;24.73;;;12.25;;
13085;SDS011;6609;49.882;8.664;2023-02-08T08:22:14;22.55;;;10.38;;
13085;SDS011;6609;49.882;8.664;2023-02-08T08:24:41;20.65;;;10.18;;
13085;SDS011;6609;49.882;8.664;2023-02-08T08:27:08;16.95;;;8.10;;
13085;SDS011;6609;49.882;8.664;2023-02-08T08:29:35;16.67;;;8.57;;
13085;SDS011;6609;49.882;8.664;2023-02-08T08:32:02;17.25;;;7.95;;
13085;SDS011;6609;49.882;8.664;2023-02-08T08:34:30;26.17;;;9.60;;
13085;SDS011;6609;49.882;8.664;2023-02-08T08:36:57;20.25;;;8.68;;
13085;SDS011;6609;49.882;8.664;2023-02-08T08:39:26;17.58;;;8.75;;
13085;SDS011;6609;49.882;8.664;2023-02-08T08:41:55;16.35;;;7.97;;
13085;SDS011;6609;49.882;8.664;2023-02-08T08:44:23;21.92;;;9.63;;
13085;SDS011;6609;49.882;8.664;2023-02-08T08:46:50;19.52;;;9.50;;
13085;SDS011;6609;49.882;8.664;2023-02-08T08:49:20;15.63;;;8.15;;
13085;SDS011;6609;49.882;8.664;2023-02-08T08:51:47;17.90;;;9.57;;
13085;SDS011;6609;49.882;8.664;2023-02-08T08:54:15;19.17;;;8.65;;
13085;SDS011;6609;49.882;8.664;2023-02-08T08:56:43;20.02;;;9.40;;
13085;SDS011;6609;49.882;8.664;2023-02-08T08:59:10;23.80;;;10.82;;
13085;SDS011;6609;49.882;8.664;2023-02-08T09:01:37;18.17;;;9.18;;
13085;SDS011;6609;49.882;8.664;2023-02-08T09:04:06;20.02;;;9.60;;
13085;SDS011;6609;49.882;8.664;2023-02-08T09:06:33;21.38;;;9.98;;
13085;SDS011;6609;49.882;8.664;2023-02-08T09:09:00;22.20;;;9.45;;
13085;SDS011;6609;49.882;8.664;2023-02-08T09:11:27;22.00;;;8.88;;
13085;SDS011;6609;49.882;8.664;2023-02-08T09:13:55;17.65;;;8.88;;
13085;SDS011;6609;49.882;8.664;2023-02-08T09:16:22;18.80;;;9.27;;
13085;SDS011;6609;49.882;8.664;2023-02-08T09:18:49;19.58;;;9.15;;
13085;SDS011;6609;49.882;8.664;2023-02-08T09:21:17;20.73;;;9.80;;
13085;SDS011;6609;49.882;8.664;2023-02-08T09:23:45;17.40;;;8.45;;
13085;SDS011;6609;49.882;8.664;2023-02-08T09:26:13;20.23;;;10.27;;
13085;SDS011;6609;49.882;8.664;2023-02-08T09:28:41;20.27;;;10.75;;
13085;SDS011;6609;49.882;8.664;2023-02-08T09:31:10;17.85;;;9.95;;
13085;SDS011;6609;49.882;8.664;2023-02-08T09:33:37;17.25;;;9.13;;
13085;SDS011;6609;49.882;8.664;2023-02-08T09:36:05;18.67;;;8.87;;
13085;SDS011;6609;49.882;8.664;2023-02-08T09:38:32;20.77;;;10.77;;
13085;SDS011;6609;49.882;8.664;2023-02-08T09:41:02;21.97;;;11.30;;
13085;SDS011;6609;49.882;8.664;2023-02-08T09:43:42;22.17;;;9.23;;
13085;SDS011;6609;49.882;8.664;2023-02-08T09:46:20;16.73;;;9.70;;
13085;SDS011;6609;49.882;8.664;2023-02-08T09:48:48;19.23;;;10.30;;
13085;SDS011;6609;49.882;8.664;2023-02-08T09:51:20;15.07;;;7.97;;
13085;SDS011;6609;49.882;8.664;2023-02-08T09:53:55;22.80;;;10.20;;
13085;SDS011;6609;49.882;8.664;2023-02-08T09:56:25;19.50;;;10.20;;
13085;SDS011;6609;49.882;8.664;2023-02-08T09:58:55;20.87;;;10.80;;
13085;SDS011;6609;49.882;8.664;2023-02-08T10:01:24;18.77;;;9.40;;
13085;SDS011;6609;49.882;8.664;2023-02-08T10:03:54;17.27;;;9.27;;
13085;SDS011;6609;49.882;8.664;2023-02-08T10:06:22;18.67;;;9.93;;
13085;SDS011;6609;49.882;8.664;2023-02-08T10:08:51;22.70;;;10.77;;
13085;SDS011;6609;49.882;8.664;2023-02-08T10:11:21;17.43;;;9.70;;
13085;SDS011;6609;49.882;8.664;2023-02-08T10:14:03;16.67;;;9.53;;
13085;SDS011;6609;49.882;8.664;2023-02-08T10:16:42;15.70;;;9.73;;
13085;SDS011;6609;49.882;8.664;2023-02-08T10:19:22;19.53;;;10.97;;
13085;SDS011;6609;49.882;8.664;2023-02-08T10:22:01;18.37;;;9.77;;
13085;SDS011;6609;49.882;8.664;2023-02-08T10:24:43;17.70;;;9.97;;
13085;SDS011;6609;49.882;8.664;2023-02-08T10:27:26;14.90;;;9.17;;
13085;SDS011;6609;49.882;8.664;2023-02-08T10:30:04;15.17;;;9.07;;
13085;SDS011;6609;49.882;8.664;2023-02-08T10:32:46;17.80;;;9.60;;
13085;SDS011;6609;49.882;8.664;2023-02-08T10:35:22;16.30;;;9.20;;
13085;SDS011;6609;49.882;8.664;2023-02-08T10:37:52;18.70;;;10.00;;
13085;SDS011;6609;49.882;8.664;2023-02-08T10:40:30;15.70;;;9.23;;
13085;SDS011;6609;49.882;8.664;2023-02-08T10:43:04;16.60;;;8.93;;
13085;SDS011;6609;49.882;8.664;2023-02-08T10:45:40;17.27;;;9.40;;
13085;SDS011;6609;49.882;8.664;2023-02-08T10:48:13;18.63;;;10.03;;
13085;SDS011;6609;49.882;8.664;2023-02-08T10:50:42;19.20;;;8.73;;
13085;SDS011;6609;49.882;8.664;2023-02-08T10:53:12;18.93;;;9.60;;
13085;SDS011;6609;49.882;8.664;2023-02-08T10:55:41;17.53;;;9.93;;
13085;SDS011;6609;49.882;8.664;2023-02-08T10:58:09;17.43;;;9.27;;
13085;SDS011;6609;49.882;8.664;2023-02-08T11:00:41;14.10;;;8.57;;
13085;SDS011;6609;49.882;8.664;2023-02-08T11:03:14;19.57;;;10.80;;
13085;SDS011;6609;49.882;8.664;2023-02-08T11:05:45;15.17;;;9.13;;
13085;SDS011;6609;49.882;8.664;2023-02-08T11:08:13;17.47;;;9.70;;
13085;SDS011;6609;49.882;8.664;2023-02-08T11:10:44;19.13;;;8.80;;
13085;SDS011;6609;49.882;8.664;2023-02-08T11:13:20;16.03;;;9.73;;
13085;SDS011;6609;49.882;8.664;2023-02-08T11:15:47;16.17;;;9.40;;
13085;SDS011;6609;49.882;8.664;2023-02-08T11:18:19;18.40;;;10.10;;
13085;SDS011;6609;49.882;8.664;2023-02-08T11:20:50;20.87;;;10.53;;
13085;SDS011;6609;49.882;8.664;2023-02-08T11:23:19;14.63;;;8.70;;
13085;SDS011;6609;49.882;8.664;2023-02-08T11:25:47;16.60;;;9.10;;
13085;SDS011;6609;49.882;8.664;2023-02-08T11:28:21;15.37;;;8.60;;
13085;SDS011;6609;49.882;8.664;2023-02-08T11:30:54;18.00;;;9.73;;
13085;SDS011;6609;49.882;8.664;2023-02-08T11:33:24;17.93;;;8.63;;
13085;SDS011;6609;49.882;8.664;2023-02-08T11:35:56;17.30;;;9.80;;
13085;SDS011;6609;49.882;8.664;2023-02-08T11:38:25;15.30;;;9.13;;
13085;SDS011;6609;49.882;8.664;2023-02-08T11:40:53;12.30;;;7.87;;
13085;SDS011;6609;49.882;8.664;2023-02-08T11:43:22;12.47;;;8.40;;
13085;SDS011;6609;49.882;8.664;2023-02-08T11:45:51;13.97;;;8.60;;
13085;SDS011;6609;49.882;8.664;2023-02-08T11:48:20;13.90;;;8.33;;
13085;SDS011;6609;49.882;8.664;2023-02-08T11:50:56;11.57;;;8.13;;
13085;SDS011;6609;49.882;8.664;2023-02-08T11:53:25;11.67;;;7.60;;
13085;SDS011;6609;49.882;8.664;2023-02-08T11:58:55;13.00;;;7.60;;
13085;SDS011;6609;49.882;8.664;2023-02-08T12:01:25;12.00;;;7.77;;
13085;SDS011;6609;49.882;8.664;2023-02-08T12:03:54;12.73;;;8.07;;
13085;SDS011;6609;49.882;8.664;2023-02-08T12:09:37;14.40;;;7.87;;
13085;SDS011;6609;49.882;8.664;2023-02-08T12:12:35;12.87;;;8.40;;
13085;SDS011;6609;49.882;8.664;2023-02-08T12:15:14;11.90;;;8.20;;
13085;SDS011;6609;49.882;8.664;2023-02-08T12:18:01;12.33;;;7.60;;
13085;SDS011;6609;49.882;8.664;2023-02-08T12:20:39;12.63;;;7.77;;
13085;SDS011;6609;49.882;8.664;2023-02-08T12:23:16;10.40;;;7.20;;
13085;SDS011;6609;49.882;8.664;2023-02-08T12:25:55;12.73;;;8.13;;
13085;SDS011;6609;49.882;8.664;2023-02-08T12:28:34;12.47;;;7.97;;
13085;SDS011;6609;49.882;8.664;2023-02-08T12:31:12;9.60;;;7.17;;
13085;SDS011;6609;49.882;8.664;2023-02-08T12:33:49;11.07;;;6.80;;
13085;SDS011;6609;49.882;8.664;2023-02-08T12:36:30;11.70;;;7.30;;
13085;SDS011;6609;49.882;8.664;2023-02-08T12:39:09;10.23;;;7.03;;
13085;SDS011;6609;49.882;8.664;2023-02-08T12:42:14;11.90;;;7.67;;
13085;SDS011;6609;49.882;8.664;2023-02-08T12:44:54;10.33;;;7.03;;
13085;SDS011;6609;49.882;8.664;2023-02-08T12:47:37;11.57;;;6.93;;
13085;SDS011;6609;49.882;8.664;2023-02-08T12:50:13;12.30;;;6.80;;
13085;SDS011;6609;49.882;8.664;2023-02-08T12:52:49;12.70;;;7.47;;
13085;SDS011;6609;49.882;8.664;2023-02-08T12:55:23;13.37;;;7.23;;
13085;SDS011;6609;49.882;8.664;2023-02-08T12:57:54;12.77;;;7.40;;
13085;SDS011;6609;49.882;8.664;2023-02-08T13:00:25;14.27;;;8.30;;
13085;SDS011;6609;49.882;8.664;2023-02-08T13:02:57;11.00;;;6.67;;
13085;SDS011;6609;49.882;8.664;2023-02-08T13:05:27;12.27;;;7.63;;
13085;SDS011;6609;49.882;8.664;2023-02-08T13:08:00;13.17;;;7.23;;
13085;SDS011;6609;49.882;8.664;2023-02-08T13:10:34;11.63;;;7.10;;
13085;SDS011;6609;49.882;8.664;2023-02-08T13:13:07;12.63;;;7.20;;
13085;SDS011;6609;49.882;8.664;2023-02-08T13:15:40;12.63;;;7.43;;
13085;SDS011;6609;49.882;8.664;2023-02-08T13:18:11;9.90;;;6.83;;
13085;SDS011;6609;49.882;8.664;2023-02-08T13:20:43;10.80;;;7.10;;
13085;SDS011;6609;49.882;8.664;2023-02-08T13:23:13;11.07;;;7.10;;
13085;SDS011;6609;49.882;8.664;2023-02-08T13:25:46;11.67;;;7.00;;
13085;SDS011;6609;49.882;8.664;2023-02-08T13:28:16;11.43;;;7.03;;
13085;SDS011;6609;49.882;8.664;2023-02-08T13:30:51;12.80;;;7.33;;
13085;SDS011;6609;49.882;8.664;2023-02-08T13:33:27;10.67;;;6.83;;
13085;SDS011;6609;49.882;8.664;2023-02-08T13:35:59;12.57;;;7.63;;
13085;SDS011;6609;49.882;8.664;2023-02-08T13:38:27;10.13;;;6.37;;
13085;SDS011;6609;49.882;8.664;2023-02-08T13:41:01;14.00;;;7.20;;
13085;SDS011;6609;49.882;8.664;2023-02-08T13:43:32;13.57;;;6.97;;
13085;SDS011;6609;49.882;8.664;2023-02-08T13:46:03;12.10;;;6.83;;
13085;SDS011;6609;49.882;8.664;2023-02-08T13:48:39;12.13;;;6.63;;
13085;SDS011;6609;49.882;8.664;2023-02-08T13:54:17;10.93;;;6.70;;
13085;SDS011;6609;49.882;8.664;2023-02-08T13:56:46;11.77;;;6.13;;
13085;SDS011;6609;49.882;8.664;2023-02-08T13:59:25;11.93;;;7.07;;
13085;SDS011;6609;49.882;8.664;2023-02-08T14:02:17;13.00;;;7.13;;
13085;SDS011;6609;49.882;8.664;2023-02-08T14:04:47;11.77;;;6.57;;
13085;SDS011;6609;49.882;8.664;2023-02-08T14:07:24;10.17;;;6.17;;
13085;SDS011;6609;49.882;8.664;2023-02-08T14:10:06;9.23;;;5.80;;
13085;SDS011;6609;49.882;8.664;2023-02-08T14:12:50;9.37;;;5.13;;
13085;SDS011;6609;49.882;8.664;2023-02-08T14:15:25;10.40;;;6.50;;
13085;SDS011;6609;49.882;8.664;2023-02-08T14:17:54;13.80;;;6.73;;
13085;SDS011;6609;49.882;8.664;2023-02-08T14:20:24;10.30;;;6.03;;
13085;SDS011;6609;49.882;8.664;2023-02-08T14:22:55;10.80;;;6.30;;
13085;SDS011;6609;49.882;8.664;2023-02-08T14:25:23;10.27;;;6.10;;
13085;SDS011;6609;49.882;8.664;2023-02-08T14:27:53;11.57;;;6.40;;
13085;SDS011;6609;49.882;8.664;2023-02-08T14:30:24;10.60;;;6.30;;
13085;SDS011;6609;49.882;8.664;2023-02-08T14:32:52;11.57;;;5.80;;
13085;SDS011;6609;49.882;8.664;2023-02-08T14:35:34;12.93;;;6.63;;
13085;SDS011;6609;49.882;8.664;2023-02-08T14:50:31;12.23;;;6.50;;
13085;SDS011;6609;49.882;8.664;2023-02-08T14:53:05;13.47;;;6.70;;
13085;SDS011;6609;49.882;8.664;2023-02-08T14:55:45;11.80;;;6.27;;
13085;SDS011;6609;49.882;8.664;2023-02-08T14:58:20;12.67;;;7.73;;
13085;SDS011;6609;49.882;8.664;2023-02-08T15:00:53;11.27;;;6.37;;
13085;SDS011;6609;49.882;8.664;2023-02-08T15:03:21;14.30;;;6.30;;
13085;SDS011;6609;49.882;8.664;2023-02-08T15:06:05;10.60;;;6.53;;
13085;SDS011;6609;49.882;8.664;2023-02-08T15:08:50;12.43;;;7.10;;
13085;SDS011;6609;49.882;8.664;2023-02-08T15:11:23;13.80;;;8.00;;
13085;SDS011;6609;49.882;8.664;2023-02-08T15:13:53;10.23;;;6.23;;
13085;SDS011;6609;49.882;8.664;2023-02-08T15:16:26;14.93;;;7.40;;
13085;SDS011;6609;49.882;8.664;2023-02-08T15:18:56;9.63;;;6.27;;
13085;SDS011;6609;49.882;8.664;2023-02-08T15:21:26;16.63;;;6.93;;
13085;SDS011;6609;49.882;8.664;2023-02-08T15:24:00;14.47;;;6.90;;
13085;SDS011;6609;49.882;8.664;2023-02-08T15:26:28;10.63;;;6.07;;
13085;SDS011;6609;49.882;8.664;2023-02-08T15:28:55;10.90;;;6.70;;